createdAt,value
2023-05-12T00:00:15.806Z,97399.03
2023-05-12T00:02:43.063Z,97395.00
2023-05-12T00:05:10.344Z,97400.09
2023-05-12T00:07:37.470Z,97392.28
2023-05-12T00:10:05.468Z,97392.00
2023-05-12T00:12:32.581Z,97391.22
2023-05-12T00:15:00.927Z,97388.41
2023-05-12T00:17:29.434Z,97389.72
2023-05-12T00:19:56.567Z,97387.81
2023-05-12T00:22:23.673Z,97390.75
2023-05-12T00:24:50.825Z,97389.13
2023-05-12T00:27:17.922Z,97384.84
2023-05-12T00:29:44.996Z,97377.72
2023-05-12T00:32:12.099Z,97387.03
2023-05-12T00:34:40.524Z,97387.81
2023-05-12T00:37:07.672Z,97384.91
2023-05-12T00:39:34.765Z,97382.22
2023-05-12T00:42:01.865Z,97384.91
2023-05-12T00:44:28.949Z,97388.72
2023-05-12T00:46:56.123Z,97383.41
2023-05-12T00:49:25.624Z,97385.09
2023-05-12T00:51:55.057Z,97377.56
2023-05-12T00:54:22.695Z,97378.56
2023-05-12T00:56:49.773Z,97388.81
2023-05-12T00:59:16.837Z,97384.19
2023-05-12T01:01:44.461Z,97379.41
2023-05-12T01:04:11.638Z,97384.47
2023-05-12T01:06:44.546Z,97392.22
2023-05-12T01:09:12.967Z,97386.81
2023-05-12T01:11:40.048Z,97383.31
2023-05-12T01:14:07.188Z,97376.38
2023-05-12T01:16:41.124Z,97391.72
2023-05-12T01:19:09.744Z,97394.19
2023-05-12T01:21:36.772Z,97384.28
2023-05-12T01:24:08.491Z,97388.81
2023-05-12T01:26:37.125Z,97383.41
2023-05-12T01:29:04.864Z,97384.19
2023-05-12T01:31:32.991Z,97384.47
2023-05-12T01:34:00.208Z,97381.78
2023-05-12T01:36:27.321Z,97368.75
2023-05-12T01:38:55.209Z,97378.16
2023-05-12T01:41:22.303Z,97375.47
2023-05-12T01:43:50.696Z,97369.06
2023-05-12T01:46:17.811Z,97371.94
2023-05-12T01:48:44.930Z,97368.75
2023-05-12T01:51:12.006Z,97377.88
2023-05-12T01:53:39.065Z,97376.97
2023-05-12T01:56:06.461Z,97378.28
2023-05-12T01:58:33.601Z,97380.13
2023-05-12T02:01:02.031Z,97378.50
2023-05-12T02:03:29.271Z,97373.69
2023-05-12T02:05:56.431Z,97376.38
2023-05-12T02:08:23.586Z,97374.00
2023-05-12T02:10:50.714Z,97380.97
2023-05-12T02:13:17.798Z,97382.09
2023-05-12T02:15:44.870Z,97385.59
2023-05-12T02:18:13.292Z,97383.97
2023-05-12T02:20:40.371Z,97372.88
2023-05-12T02:23:07.452Z,97370.56
2023-05-12T02:25:34.548Z,97378.47
2023-05-12T02:28:01.632Z,97372.63
2023-05-12T02:30:28.723Z,97383.34
2023-05-12T02:32:55.895Z,97384.44
2023-05-12T02:35:24.323Z,97377.66
2023-05-12T02:37:51.438Z,97371.66
2023-05-12T02:40:18.752Z,97370.88
2023-05-12T02:42:46.030Z,97363.56
2023-05-12T02:45:13.209Z,97365.91
2023-05-12T02:47:40.394Z,97365.06
2023-05-12T02:50:08.648Z,97365.69
2023-05-12T02:52:37.077Z,97368.59
2023-05-12T02:55:04.754Z,97362.09
2023-05-12T02:57:31.871Z,97363.47
2023-05-12T02:59:58.952Z,97351.44
2023-05-12T03:02:26.509Z,97359.47
2023-05-12T03:04:53.642Z,97358.97
2023-05-12T03:07:21.397Z,97363.56
2023-05-12T03:09:50.038Z,97363.06
2023-05-12T03:12:17.149Z,97359.06
2023-05-12T03:14:44.373Z,97361.31
2023-05-12T03:17:11.538Z,97357.31
2023-05-12T03:19:38.837Z,97363.78
2023-05-12T03:22:05.944Z,97360.00
2023-05-12T03:24:33.109Z,97370.22
2023-05-12T03:27:01.517Z,97360.22
2023-05-12T03:29:28.586Z,97367.44
2023-05-12T03:31:55.709Z,97367.94
2023-05-12T03:34:22.790Z,97344.41
2023-05-12T03:36:49.878Z,97373.34
2023-05-12T03:39:16.961Z,97370.34
2023-05-12T03:41:44.038Z,97370.66
2023-05-12T03:44:12.446Z,97365.13
2023-05-12T03:46:39.600Z,97361.81
2023-05-12T03:49:06.722Z,97372.03
2023-05-12T03:51:33.790Z,97363.22
2023-05-12T03:54:00.923Z,97367.09
2023-05-12T03:56:28.009Z,97369.69
2023-05-12T03:58:55.122Z,97372.16
2023-05-12T04:01:23.552Z,97373.84
2023-05-12T04:03:50.696Z,97373.56
2023-05-12T04:06:17.897Z,97367.22
2023-05-12T04:08:45.001Z,97364.59
2023-05-12T04:11:12.078Z,97360.63
2023-05-12T04:13:39.212Z,97369.13
2023-05-12T04:16:06.630Z,97367.88
2023-05-12T04:18:35.150Z,97363.72
2023-05-12T04:21:02.335Z,97363.16
2023-05-12T04:23:31.019Z,97338.69
2023-05-12T04:25:58.136Z,97374.03
2023-05-12T04:28:25.235Z,97378.53
2023-05-12T04:30:52.321Z,97373.69
2023-05-12T04:33:19.401Z,97372.84
2023-05-12T04:35:47.835Z,97373.13
2023-05-12T04:38:14.928Z,97382.06
2023-05-12T04:40:42.033Z,97382.06
2023-05-12T04:43:09.145Z,97386.84
2023-05-12T04:45:36.267Z,97388.47
2023-05-12T04:48:03.550Z,97390.88
2023-05-12T04:50:30.754Z,97387.69
2023-05-12T04:52:59.203Z,97399.63
2023-05-12T04:55:26.361Z,97395.06
2023-05-12T04:57:53.416Z,97396.41
2023-05-12T05:00:20.801Z,97395.34
2023-05-12T05:02:47.944Z,97399.63
2023-05-12T05:05:15.263Z,97400.13
2023-05-12T05:07:42.377Z,97398.53
2023-05-12T05:10:11.089Z,97398.75
2023-05-12T05:12:38.260Z,97397.31
2023-05-12T05:15:06.203Z,97396.50
2023-05-12T05:17:33.417Z,97397.31
2023-05-12T05:20:00.652Z,97408.63
2023-05-12T05:22:27.944Z,97412.41
2023-05-12T05:24:55.058Z,97415.09
2023-05-12T05:27:23.498Z,97418.31
2023-05-12T05:29:50.818Z,97422.09
2023-05-12T05:32:17.905Z,97418.09
2023-05-12T05:34:44.974Z,97423.19
2023-05-12T05:37:12.080Z,97426.13
2023-05-12T05:39:39.156Z,97424.31
2023-05-12T05:42:06.760Z,97416.41
2023-05-12T05:44:35.234Z,97426.34
2023-05-12T05:47:02.364Z,97428.25
2023-05-12T05:49:29.473Z,97435.22
2023-05-12T05:51:56.658Z,97435.53
2023-05-12T05:54:23.899Z,97434.44
2023-05-12T05:56:51.962Z,97436.78
2023-05-12T05:59:19.054Z,97433.75
2023-05-12T06:01:47.522Z,97434.59
2023-05-12T06:04:14.712Z,97441.00
2023-05-12T06:06:41.896Z,97430.50
2023-05-12T06:09:08.963Z,97445.63
2023-05-12T06:11:36.036Z,97448.81
2023-05-12T06:14:03.141Z,97451.22
2023-05-12T06:16:30.297Z,97446.91
2023-05-12T06:18:58.815Z,97444.50
2023-05-12T06:21:25.946Z,97451.22
2023-05-12T06:23:53.013Z,97449.34
2023-05-12T06:26:20.121Z,97457.13
2023-05-12T06:28:47.496Z,97462.09
2023-05-12T06:31:14.625Z,97457.56
2023-05-12T06:33:41.692Z,97460.25
2023-05-12T06:36:10.342Z,97464.63
2023-05-12T06:38:37.467Z,97469.75
2023-05-12T06:41:04.559Z,97468.66
2023-05-12T06:43:31.717Z,97450.78
2023-05-12T06:45:58.805Z,97466.91
2023-05-12T06:48:25.909Z,97468.53
2023-05-12T06:50:53.006Z,97472.38
2023-05-12T06:53:23.996Z,97476.25
2023-05-12T06:55:52.501Z,97468.63
2023-05-12T06:58:19.584Z,97448.91
2023-05-12T07:00:46.641Z,97476.09
2023-05-12T07:03:13.893Z,97476.31
2023-05-12T07:05:41.041Z,97479.06
2023-05-12T07:08:08.148Z,97475.72
2023-05-12T07:10:36.559Z,97480.75
2023-05-12T07:13:03.979Z,97474.31
2023-05-12T07:15:32.730Z,97480.91
2023-05-12T07:18:00.264Z,97475.94
2023-05-12T07:20:27.602Z,97477.03
2023-05-12T07:22:54.942Z,97477.63
2023-05-12T07:25:22.779Z,97484.13
2023-05-12T07:27:51.514Z,97485.75
2023-05-12T07:30:18.619Z,97481.50
2023-05-12T07:32:45.770Z,97486.09
2023-05-12T07:35:12.894Z,97485.75
2023-05-12T07:37:40.036Z,97489.53
2023-05-12T07:40:08.345Z,97484.13
2023-05-12T07:42:35.548Z,97487.44
2023-05-12T07:45:04.460Z,97486.25
2023-05-12T07:47:31.702Z,97491.72
2023-05-12T07:49:58.843Z,97487.44
2023-05-12T07:52:25.958Z,97487.44
2023-05-12T07:54:53.070Z,97495.00
2023-05-12T07:57:20.177Z,97485.91
2023-05-12T07:59:47.291Z,97490.97
2023-05-12T08:02:15.757Z,97499.41
2023-05-12T08:04:44.422Z,97493.59
2023-05-12T08:07:11.685Z,97493.69
2023-05-12T08:09:38.776Z,97494.50
2023-05-12T08:12:06.281Z,97488.63
2023-05-12T08:14:33.351Z,97489.16
2023-05-12T08:17:00.620Z,97489.94
2023-05-12T08:19:29.272Z,97492.59
2023-05-12T08:21:56.357Z,97501.47
2023-05-12T08:24:23.441Z,97494.41
2023-05-12T08:26:50.526Z,97497.09
2023-05-12T08:29:17.606Z,97499.81
2023-05-12T08:31:44.776Z,97502.72
2023-05-12T08:34:11.946Z,97498.72
2023-05-12T08:36:40.687Z,97504.34
2023-05-12T08:39:08.123Z,97503.56
2023-05-12T08:41:42.634Z,97500.63
2023-05-12T08:44:10.757Z,97487.97
2023-05-12T08:46:38.700Z,97485.38
2023-05-12T08:49:09.610Z,97507.91
2023-05-12T08:51:38.299Z,97502.59
2023-05-12T08:54:08.540Z,97501.25
2023-05-12T08:59:08.825Z,97509.66
2023-05-12T09:01:36.972Z,97513.44
2023-05-12T09:04:04.959Z,97511.63
2023-05-12T09:06:32.810Z,97520.16
2023-05-12T09:09:00.205Z,97519.59
2023-05-12T09:11:28.635Z,97514.41
2023-05-12T09:14:00.980Z,97499.91
2023-05-12T09:16:30.309Z,97511.13
2023-05-12T09:18:59.052Z,97518.41
2023-05-12T09:21:26.968Z,97514.69
2023-05-12T09:24:02.609Z,97519.22
2023-05-12T09:26:32.096Z,97516.50
2023-05-12T09:29:05.566Z,97517.91
2023-05-12T09:31:32.750Z,97516.81
2023-05-12T09:34:00.090Z,97506.66
2023-05-12T09:36:27.318Z,97524.94
2023-05-12T09:39:01.046Z,97523.59
2023-05-12T09:41:28.142Z,97522.06
2023-05-12T09:43:56.933Z,97528.06
2023-05-12T09:46:24.797Z,97519.72
2023-05-12T09:48:55.587Z,97525.91
2023-05-12T09:51:23.286Z,97528.84
2023-05-12T09:53:50.422Z,97520.53
2023-05-12T09:56:18.644Z,97525.63
2023-05-12T09:58:47.723Z,97524.25
2023-05-12T10:01:23.350Z,97526.28
2023-05-12T10:03:53.245Z,97505.00
2023-05-12T10:06:23.068Z,97515.16
2023-05-12T10:08:54.019Z,97515.94
2023-05-12T10:11:22.474Z,97515.16
2023-05-12T10:13:49.644Z,97511.66
2023-05-12T10:16:18.598Z,97513.53
2023-05-12T10:18:46.626Z,97512.22
2023-05-12T10:21:15.825Z,97513.81
2023-05-12T10:23:44.365Z,97509.53
2023-05-12T10:26:11.998Z,97505.81
2023-05-12T10:28:39.524Z,97510.41
2023-05-12T10:31:07.802Z,97512.44
2023-05-12T10:33:36.242Z,97522.19
2023-05-12T10:36:03.803Z,97517.03
2023-05-12T10:38:39.445Z,97523.22
2023-05-12T10:41:06.771Z,97518.91
2023-05-12T10:43:39.523Z,97518.09
2023-05-12T10:46:10.759Z,97521.53
2023-05-12T10:48:52.268Z,97513.16
2023-05-12T10:51:20.570Z,97523.59
2023-05-12T10:53:54.618Z,97520.09
2023-05-12T10:56:24.419Z,97508.28
2023-05-12T10:59:14.123Z,97520.91
2023-05-12T11:01:43.436Z,97514.69
2023-05-12T11:04:17.351Z,97515.50
2023-05-12T11:06:45.248Z,97525.50
2023-05-12T11:09:15.237Z,97526.28
2023-05-12T11:11:43.827Z,97519.31
2023-05-12T11:14:11.005Z,97524.19
2023-05-12T11:16:42.170Z,97522.28
2023-05-12T11:19:09.373Z,97525.91
2023-05-12T11:21:38.584Z,97527.31
2023-05-12T11:24:06.046Z,97521.41
2023-05-12T11:26:34.045Z,97530.28
2023-05-12T11:29:04.000Z,97525.78
2023-05-12T11:31:31.227Z,97533.00
2023-05-12T11:34:11.892Z,97535.31
2023-05-12T11:36:43.643Z,97536.34
2023-05-12T11:39:15.794Z,97538.53
2023-05-12T11:41:43.095Z,97543.16
2023-05-12T11:44:17.605Z,97523.22
2023-05-12T11:46:55.247Z,97539.38
2023-05-12T11:49:22.798Z,97533.66
2023-05-12T11:51:53.362Z,97546.06
2023-05-12T11:54:21.173Z,97529.41
2023-05-12T11:56:49.495Z,97542.84
2023-05-12T11:59:26.733Z,97547.16
2023-05-12T12:01:54.422Z,97539.88
2023-05-12T12:04:31.766Z,97549.13
2023-05-12T12:07:00.250Z,97544.03
2023-05-12T12:09:34.845Z,97549.97
2023-05-12T12:12:03.183Z,97545.69
2023-05-12T12:14:32.179Z,97554.31
2023-05-12T12:16:59.526Z,97545.19
2023-05-12T12:19:27.066Z,97555.63
2023-05-12T12:21:54.271Z,97562.63
2023-05-12T12:24:23.001Z,97556.59
2023-05-12T12:26:50.274Z,97554.75
2023-05-12T12:29:17.685Z,97554.97
2023-05-12T12:31:44.877Z,97559.34
2023-05-12T12:34:12.258Z,97562.56
2023-05-12T12:36:39.377Z,97552.56
2023-05-12T12:39:06.646Z,97553.38
2023-05-12T12:41:35.152Z,97557.16
2023-05-12T12:44:02.241Z,97563.66
2023-05-12T12:46:29.464Z,97543.00
2023-05-12T12:48:56.567Z,97565.03
2023-05-12T12:51:24.404Z,97557.75
2023-05-12T12:53:51.717Z,97560.22
2023-05-12T12:56:18.836Z,97566.25
2023-05-12T12:58:47.268Z,97559.75
2023-05-12T13:01:14.402Z,97567.28
2023-05-12T13:03:41.568Z,97568.09
2023-05-12T13:06:08.653Z,97559.19
2023-05-12T13:08:35.761Z,97571.66
2023-05-12T13:11:02.878Z,97557.31
2023-05-12T13:13:29.941Z,97575.59
2023-05-12T13:15:58.356Z,97569.63
2023-05-12T13:18:25.582Z,97564.75
2023-05-12T13:20:52.795Z,97565.03
2023-05-12T13:23:19.935Z,97568.53
2023-05-12T13:25:47.036Z,97566.66
2023-05-12T13:28:14.268Z,97564.75
2023-05-12T13:30:41.393Z,97563.44
2023-05-12T13:33:10.075Z,97568.22
2023-05-12T13:35:37.206Z,97569.09
2023-05-12T13:38:04.290Z,97565.91
2023-05-12T13:40:31.432Z,97564.88
2023-05-12T13:42:58.494Z,97566.00
2023-05-12T13:45:25.785Z,97570.00
2023-05-12T13:47:52.968Z,97561.69
2023-05-12T13:50:21.652Z,97569.22
2023-05-12T13:52:48.722Z,97562.69
2023-05-12T13:55:20.831Z,97537.00
2023-05-12T13:57:48.941Z,97571.56
2023-05-12T14:00:16.696Z,97574.56
2023-05-12T14:02:44.165Z,97556.72
2023-05-12T14:05:11.391Z,97567.56
2023-05-12T14:07:39.866Z,97566.91
2023-05-12T14:10:07.888Z,97560.69
2023-05-12T14:12:35.152Z,97561.56
2023-05-12T14:15:20.039Z,97576.63
2023-05-12T14:17:54.827Z,97579.59
2023-05-12T14:20:22.472Z,97576.66
2023-05-12T14:22:51.126Z,97575.81
2023-05-12T14:25:18.813Z,97559.56
2023-05-12T14:27:46.216Z,97576.66
2023-05-12T14:30:16.293Z,97571.72
2023-05-12T14:32:43.614Z,97562.50
2023-05-12T14:35:11.330Z,97571.91
2023-05-12T14:37:40.080Z,97550.69
2023-05-12T14:40:12.210Z,97576.66
2023-05-12T14:42:40.219Z,97577.13
2023-05-12T14:45:09.857Z,97586.50
2023-05-12T14:47:38.016Z,97588.06
2023-05-12T14:50:06.081Z,97588.84
2023-05-12T14:52:33.252Z,97587.19
2023-05-12T14:55:00.360Z,97587.94
2023-05-12T14:57:28.779Z,97592.78
2023-05-12T14:59:55.888Z,97595.13
2023-05-12T15:02:23.039Z,97598.09
2023-05-12T15:04:50.183Z,97598.09
2023-05-12T15:07:17.336Z,97598.94
2023-05-12T15:09:44.439Z,97597.84
2023-05-12T15:12:11.529Z,97599.72
2023-05-12T15:14:40.055Z,97604.34
2023-05-12T15:17:07.151Z,97603.25
2023-05-12T15:19:34.284Z,97597.34
2023-05-12T15:22:01.506Z,97596.81
2023-05-12T15:24:28.603Z,97595.94
2023-05-12T15:26:55.700Z,97598.06
2023-05-12T15:29:22.778Z,97600.25
2023-05-12T15:31:51.314Z,97592.97
2023-05-12T15:34:18.622Z,97594.25
2023-05-12T15:36:45.770Z,97594.75
2023-05-12T15:39:12.856Z,97585.28
2023-05-12T15:41:39.976Z,97589.09
2023-05-12T15:44:07.087Z,97586.66
2023-05-12T15:46:34.298Z,97580.44
2023-05-12T15:49:02.769Z,97586.63
2023-05-12T15:51:29.957Z,97588.19
2023-05-12T15:53:57.112Z,97585.13
2023-05-12T15:56:24.188Z,97586.19
2023-05-12T15:58:51.354Z,97588.53
2023-05-12T16:01:18.583Z,97585.84
2023-05-12T16:03:45.884Z,97580.81
2023-05-12T16:06:14.469Z,97583.16
2023-05-12T16:08:41.584Z,97585.56
2023-05-12T16:11:08.687Z,97581.25
2023-05-12T16:13:35.844Z,97584.41
2023-05-12T16:16:02.983Z,97582.22
2023-05-12T16:18:30.170Z,97576.28
2023-05-12T16:20:57.700Z,97581.59
2023-05-12T16:23:26.360Z,97582.59
2023-05-12T16:25:53.448Z,97585.03
2023-05-12T16:28:20.701Z,97580.72
2023-05-12T16:30:48.008Z,97578.47
2023-05-12T16:33:15.102Z,97580.59
2023-05-12T16:35:42.208Z,97575.50
2023-05-12T16:38:09.287Z,97578.47
2023-05-12T16:40:37.743Z,97578.53
2023-05-12T16:43:04.830Z,97575.53
2023-05-12T16:45:32.005Z,97579.25
2023-05-12T16:47:59.185Z,97577.69
2023-05-12T16:50:26.510Z,97578.75
2023-05-12T16:52:53.631Z,97573.31
2023-05-12T16:55:21.264Z,97574.09
2023-05-12T16:57:49.938Z,97581.31
2023-05-12T17:00:17.690Z,97578.47
2023-05-12T17:02:44.848Z,97580.41
2023-05-12T17:05:12.022Z,97573.19
2023-05-12T17:07:39.135Z,97572.31
2023-05-12T17:10:06.616Z,97572.00
2023-05-12T17:12:33.780Z,97578.69
2023-05-12T17:15:07.704Z,97575.91
2023-05-12T17:17:49.356Z,97559.34
2023-05-12T17:20:16.431Z,97576.16
2023-05-12T17:22:43.547Z,97579.44
2023-05-12T17:25:10.745Z,97579.88
2023-05-12T17:27:37.826Z,97575.34
2023-05-12T17:30:07.932Z,97583.97
2023-05-12T17:32:35.175Z,97578.84
2023-05-12T17:35:02.544Z,97586.16
2023-05-12T17:37:29.624Z,97590.56
2023-05-12T17:39:57.072Z,97586.00
2023-05-12T17:42:24.153Z,97591.75
2023-05-12T17:44:51.223Z,97589.44
2023-05-12T17:47:19.699Z,97593.75
2023-05-12T17:49:46.838Z,97602.94
2023-05-12T17:52:13.918Z,97585.69
2023-05-12T17:54:41.151Z,97596.97
2023-05-12T17:57:08.396Z,97603.72
2023-05-12T17:59:35.684Z,97601.28
2023-05-12T18:02:02.965Z,97598.81
2023-05-12T18:04:31.555Z,97608.81
2023-05-12T18:06:58.633Z,97604.75
2023-05-12T18:09:25.771Z,97614.53
2023-05-12T18:11:52.840Z,97613.47
2023-05-12T18:14:19.903Z,97620.25
2023-05-12T18:16:47.151Z,97622.72
2023-05-12T18:19:14.504Z,97617.59
2023-05-12T18:21:43.018Z,97628.13
2023-05-12T18:24:10.146Z,97628.66
2023-05-12T18:26:37.225Z,97629.50
2023-05-12T18:29:04.313Z,97633.75
2023-05-12T18:31:31.541Z,97635.72
2023-05-12T18:33:58.653Z,97641.72
2023-05-12T18:36:26.953Z,97643.31
2023-05-12T18:38:55.389Z,97646.25
2023-05-12T18:41:22.462Z,97651.38
2023-05-12T18:43:49.565Z,97652.69
2023-05-12T18:46:16.731Z,97656.41
2023-05-12T18:48:43.873Z,97658.53
2023-05-12T18:51:11.073Z,97663.16
2023-05-12T18:53:38.214Z,97661.81
2023-05-12T18:56:06.667Z,97668.50
2023-05-12T18:58:33.785Z,97678.75
2023-05-12T19:01:00.952Z,97673.13
2023-05-12T19:03:28.016Z,97666.00
2023-05-12T19:05:55.083Z,97671.44
2023-05-12T19:08:22.177Z,97684.03
2023-05-12T19:10:49.249Z,97689.19
2023-05-12T19:13:17.671Z,97684.03
2023-05-12T19:15:44.767Z,97679.97
2023-05-12T19:18:11.959Z,97669.34
2023-05-12T19:20:39.148Z,97692.00
2023-05-12T19:23:06.273Z,97686.16
2023-05-12T19:25:33.363Z,97683.72
2023-05-12T19:28:00.483Z,97686.34
2023-05-12T19:30:29.149Z,97686.56
2023-05-12T19:32:56.522Z,97675.28
2023-05-12T19:35:23.880Z,97687.09
2023-05-12T19:37:51.114Z,97686.56
2023-05-12T19:40:18.225Z,97685.75
2023-05-12T19:42:45.330Z,97682.75
2023-05-12T19:45:12.466Z,97697.03
2023-05-12T19:47:41.038Z,97685.66
2023-05-12T19:50:09.206Z,97689.91
2023-05-12T19:52:36.340Z,97694.22
2023-05-12T19:55:03.888Z,97691.47
2023-05-12T19:57:30.991Z,97695.44
2023-05-12T19:59:58.102Z,97686.56
2023-05-12T20:02:25.267Z,97697.97
2023-05-12T20:04:53.814Z,97685.81
2023-05-12T20:07:20.933Z,97683.00
2023-05-12T20:09:48.021Z,97689.56
2023-05-12T20:12:15.096Z,97663.31
2023-05-12T20:14:42.232Z,97683.63
2023-05-12T20:17:09.576Z,97680.66
2023-05-12T20:19:36.738Z,97684.66
2023-05-12T20:22:05.438Z,97684.38
2023-05-12T20:24:32.509Z,97684.91
2023-05-12T20:26:59.580Z,97691.63
2023-05-12T20:29:26.719Z,97679.78
2023-05-12T20:31:53.826Z,97683.19
2023-05-12T20:34:20.936Z,97684.00
2023-05-12T20:36:48.331Z,97672.56
2023-05-12T20:39:16.763Z,97679.00
2023-05-12T20:41:43.916Z,97678.75
2023-05-12T20:44:11.154Z,97670.88
2023-05-12T20:46:38.721Z,97667.41
2023-05-12T20:49:06.147Z,97673.03
2023-05-12T20:51:33.376Z,97676.88
2023-05-12T20:54:00.550Z,97671.56
2023-05-12T20:56:29.034Z,97672.75
2023-05-12T20:58:56.209Z,97675.78
2023-05-12T21:01:23.361Z,97670.91
2023-05-12T21:03:50.487Z,97668.44
2023-05-12T21:06:17.644Z,97670.25
2023-05-12T21:08:44.700Z,97675.66
2023-05-12T21:11:15.909Z,97665.91
2023-05-12T21:13:45.316Z,97672.09
2023-05-12T21:16:12.472Z,97672.31
2023-05-12T21:18:39.680Z,97664.81
2023-05-12T21:21:06.838Z,97672.31
2023-05-12T21:23:34.891Z,97665.94
2023-05-12T21:26:02.006Z,97671.13
2023-05-12T21:28:29.254Z,97672.22
2023-05-12T21:30:57.671Z,97668.25
2023-05-12T21:33:24.907Z,97674.75
2023-05-12T21:35:52.011Z,97673.38
2023-05-12T21:38:19.306Z,97666.94
2023-05-12T21:40:48.971Z,97667.72
2023-05-12T21:43:16.093Z,97672.06
2023-05-12T21:45:43.290Z,97678.25
2023-05-12T21:48:11.903Z,97675.53
2023-05-12T21:50:39.014Z,97683.63
2023-05-12T21:53:06.109Z,97676.34
2023-05-12T21:55:33.194Z,97682.53
2023-05-12T21:58:00.308Z,97678.22
2023-05-12T22:00:27.631Z,97679.28
2023-05-12T22:02:54.744Z,97677.38
2023-05-12T22:05:23.246Z,97673.81
2023-05-12T22:07:50.342Z,97677.31
2023-05-12T22:10:17.494Z,97681.94
2023-05-12T22:12:44.779Z,97681.69
2023-05-12T22:15:11.870Z,97675.53
2023-05-12T22:17:39.502Z,97680.41
2023-05-12T22:20:07.933Z,97681.22
2023-05-12T22:22:36.507Z,97666.44
2023-05-12T22:25:04.077Z,97681.53
2023-05-12T22:27:31.333Z,97677.75
2023-05-12T22:29:58.526Z,97652.53
2023-05-12T22:32:25.806Z,97674.34
2023-05-12T22:34:53.070Z,97674.28
2023-05-12T22:37:20.205Z,97678.84
2023-05-12T22:39:48.624Z,97680.69
2023-05-12T22:42:15.740Z,97680.69
2023-05-12T22:44:42.846Z,97682.09
2023-05-12T22:47:10.081Z,97675.03
2023-05-12T22:49:37.286Z,97675.03
2023-05-12T22:52:04.715Z,97675.78
2023-05-12T22:54:31.853Z,97664.47
2023-05-12T22:57:00.346Z,97660.66
2023-05-12T22:59:27.474Z,97658.22
2023-05-12T23:01:54.538Z,97666.06
2023-05-12T23:04:21.752Z,97661.25
2023-05-12T23:06:48.964Z,97663.94
2023-05-12T23:09:16.050Z,97668.25
2023-05-12T23:11:43.174Z,97653.47
2023-05-12T23:14:11.634Z,97661.53
2023-05-12T23:16:38.773Z,97640.69
2023-05-12T23:19:05.934Z,97660.78
2023-05-12T23:21:33.114Z,97653.53
2023-05-12T23:24:00.194Z,97650.59
2023-05-12T23:26:27.341Z,97639.53
2023-05-12T23:28:54.413Z,97645.97
2023-05-12T23:31:22.918Z,97640.56
2023-05-12T23:33:50.161Z,97635.72
2023-05-12T23:36:17.284Z,97636.50
2023-05-12T23:38:44.345Z,97632.44
2023-05-12T23:41:11.459Z,97633.47
2023-05-12T23:43:38.533Z,97635.06
2023-05-12T23:46:05.654Z,97642.09
2023-05-12T23:48:34.440Z,97639.38
2023-05-12T23:51:01.754Z,97636.97
2023-05-12T23:53:28.832Z,97630.78
2023-05-12T23:55:55.943Z,97637.53
2023-05-12T23:58:23.010Z,97628.91
